Time;durP1;ratioP1;P1;durP2;ratioP2;P2;SDS_P1;SDS_P2;PMS_P1;PMS_P2;Temp;Humidity;BMP_temperature;BMP_pressure;BME280_temperature;BME280_humidity;BME280_pressure;Samples;Min_cycle;Max_cycle;Signal;HPM_P1;HPM_P2
2023/07/17 00:01:43;;;;;;;0.40;0.40;;;16.50;99.90;;;;;;4971675;28;20540;-73
2023/07/17 00:04:09;;;;;;;0.40;0.40;;;16.60;99.90;;;;;;4952462;28;20079;-73
2023/07/17 00:06:35;;;;;;;0.47;0.47;;;16.70;99.90;;;;;;4951114;28;20078;-73
2023/07/17 00:09:00;;;;;;;0.40;0.40;;;16.70;99.90;;;;;;4954241;28;20073;-73
2023/07/17 00:11:26;;;;;;;0.60;0.60;;;16.60;99.90;;;;;;4970878;28;20547;-73
2023/07/17 00:13:52;;;;;;;0.73;0.73;;;16.60;99.90;;;;;;4951707;28;20125;-72
2023/07/17 00:16:19;;;;;;;0.40;0.40;;;16.50;99.90;;;;;;4953763;28;20059;-72
2023/07/17 00:18:45;;;;;;;0.30;0.30;;;16.40;99.90;;;;;;4970946;28;20397;-73
2023/07/17 00:21:11;;;;;;;0.40;0.40;;;16.60;99.90;;;;;;4953059;28;20053;-73
2023/07/17 00:23:36;;;;;;;0.60;0.60;;;16.60;99.90;;;;;;4954339;28;20053;-72
2023/07/17 00:26:02;;;;;;;0.80;0.80;;;16.60;99.90;;;;;;4970827;28;20051;-72
2023/07/17 00:28:27;;;;;;;0.40;0.40;;;16.50;99.90;;;;;;4954297;28;20050;-72
2023/07/17 00:30:53;;;;;;;0.30;0.30;;;16.40;99.90;;;;;;4952023;28;20054;-72
2023/07/17 00:33:19;;;;;;;0.47;0.40;;;16.50;99.90;;;;;;4953672;28;20487;-72
2023/07/17 00:35:44;;;;;;;0.60;0.60;;;16.40;99.90;;;;;;4967364;28;20043;-72
2023/07/17 00:38:10;;;;;;;0.52;0.52;;;16.50;99.90;;;;;;4950245;28;20409;-72
2023/07/17 00:40:39;;;;;;;0.63;0.60;;;16.50;99.90;;;;;;4950283;28;20109;-72
2023/07/17 00:43:09;;;;;;;0.82;0.77;;;16.60;99.90;;;;;;4956115;28;20042;-73
2023/07/17 00:45:36;;;;;;;0.40;0.40;;;16.60;99.90;;;;;;4952995;28;20126;-73
2023/07/17 00:48:03;;;;;;;0.20;0.20;;;16.40;99.90;;;;;;4953392;28;20093;-73
2023/07/17 00:50:29;;;;;;;0.50;0.50;;;16.50;99.90;;;;;;4956440;28;20070;-73
2023/07/17 00:52:55;;;;;;;0.80;0.80;;;16.50;99.90;;;;;;4953049;28;20046;-73
2023/07/17 00:55:21;;;;;;;0.70;0.70;;;16.60;99.90;;;;;;4952400;28;20134;-72
2023/07/17 00:57:50;;;;;;;0.30;0.30;;;16.50;99.90;;;;;;4968536;28;20138;-72
2023/07/17 01:00:18;;;;;;;0.80;0.80;;;16.60;99.90;;;;;;4951046;28;20074;-72
2023/07/17 01:02:43;;;;;;;;;;;16.60;99.90;;;;;;4947525;28;20467;-72
2023/07/17 01:05:09;;;;;;;0.60;0.60;;;16.60;99.90;;;;;;4959408;28;19932;-72
2023/07/17 01:07:37;;;;;;;0.40;0.40;;;16.50;99.90;;;;;;4969717;28;20061;-72
2023/07/17 01:10:05;;;;;;;0.30;0.30;;;16.70;99.90;;;;;;4955122;28;20122;-73
2023/07/17 01:12:35;;;;;;;0.57;0.57;;;16.40;99.90;;;;;;4950594;28;20046;-73
2023/07/17 01:15:01;;;;;;;0.50;0.50;;;16.40;99.90;;;;;;4952667;28;20050;-73
2023/07/17 01:17:27;;;;;;;0.40;0.40;;;16.40;99.90;;;;;;4950358;28;20093;-73
2023/07/17 01:19:53;;;;;;;0.38;0.38;;;16.30;99.90;;;;;;4955426;28;20492;-73
2023/07/17 01:22:38;;;;;;;0.30;0.30;;;16.30;99.90;;;;;;4953949;28;20460;-72
2023/07/17 01:25:05;;;;;;;1.08;1.05;;;16.30;99.90;;;;;;4952881;28;20105;-73
2023/07/17 01:27:30;;;;;;;0.40;0.40;;;16.30;99.90;;;;;;4951896;28;20054;-73
2023/07/17 01:29:56;;;;;;;0.45;0.45;;;16.50;99.90;;;;;;4949044;28;20621;-73
2023/07/17 01:32:21;;;;;;;0.95;0.63;;;16.20;99.90;;;;;;4967986;28;20043;-73
2023/07/17 01:34:47;;;;;;;0.80;0.80;;;16.20;99.90;;;;;;4952338;28;20476;-73
2023/07/17 01:37:13;;;;;;;0.40;0.40;;;16.20;99.90;;;;;;4950911;28;20071;-73
2023/07/17 01:39:38;;;;;;;0.40;0.40;;;16.20;99.90;;;;;;4948293;28;20058;-72
2023/07/17 01:42:04;;;;;;;0.40;0.40;;;16.50;99.90;;;;;;4950812;28;20054;-73
2023/07/17 01:44:30;;;;;;;0.40;0.40;;;16.40;99.90;;;;;;4952202;28;20054;-73
2023/07/17 01:46:57;;;;;;;0.40;0.40;;;16.40;99.90;;;;;;4948039;28;20100;-72
2023/07/17 01:49:22;;;;;;;2.05;1.60;;;16.20;99.90;;;;;;4968803;28;20121;-72
2023/07/17 01:51:48;;;;;;;0.40;0.40;;;16.10;99.90;;;;;;4948708;28;20197;-72
2023/07/17 01:54:14;;;;;;;0.40;0.40;;;16.20;99.90;;;;;;4948337;28;20055;-72
2023/07/17 01:56:40;;;;;;;0.30;0.30;;;16.10;99.90;;;;;;4951801;28;20504;-72
2023/07/17 01:59:05;;;;;;;0.40;0.40;;;16.20;99.90;;;;;;4952213;28;20053;-72
2023/07/17 02:01:33;;;;;;;0.45;0.45;;;16.30;99.90;;;;;;4935127;28;20042;-72
2023/07/17 02:03:59;;;;;;;0.43;0.43;;;16.20;99.90;;;;;;4952228;28;20090;-72
2023/07/17 02:06:25;;;;;;;0.40;0.40;;;16.30;99.90;;;;;;4949901;28;20066;-72
2023/07/17 02:08:51;;;;;;;0.50;0.50;;;16.10;99.90;;;;;;4951636;28;20049;-72
2023/07/17 02:11:19;;;;;;;0.40;0.40;;;16.10;99.90;;;;;;4947920;28;20392;-72
2023/07/17 02:13:44;;;;;;;0.57;0.57;;;16.30;99.90;;;;;;4946929;28;20046;-72
2023/07/17 02:16:10;;;;;;;0.47;0.47;;;15.90;99.90;;;;;;4967285;28;20046;-72
2023/07/17 02:18:36;;;;;;;0.47;0.47;;;15.90;99.90;;;;;;4952052;28;20043;-72
2023/07/17 02:23:37;;;;;;;0.77;0.77;;;15.80;99.90;;;;;;4776522;23;20086;-84
2023/07/17 02:26:03;;;;;;;0.32;0.32;;;16.10;99.90;;;;;;4945857;28;20094;-83
2023/07/17 02:28:29;;;;;;;0.40;0.40;;;16.10;99.90;;;;;;4964176;28;20054;-83
2023/07/17 02:30:55;;;;;;;0.57;0.57;;;16.00;99.90;;;;;;4972731;28;20039;-82
2023/07/17 02:33:20;;;;;;;0.40;0.40;;;16.00;99.90;;;;;;4972612;28;20050;-82
2023/07/17 02:35:46;;;;;;;1.23;0.60;;;15.80;99.90;;;;;;4971605;28;20499;-83
2023/07/17 02:38:12;;;;;;;0.40;0.40;;;15.90;99.90;;;;;;4968510;28;20411;-83
2023/07/17 02:40:38;;;;;;;0.30;0.30;;;15.90;99.90;;;;;;4959907;28;20039;-83
2023/07/17 02:43:06;;;;;;;0.28;0.28;;;15.80;99.90;;;;;;4971354;28;20789;-83
2023/07/17 02:45:32;;;;;;;0.30;0.30;;;15.70;99.90;;;;;;4963500;28;20047;-83
2023/07/17 02:47:57;;;;;;;0.30;0.30;;;15.90;99.90;;;;;;4970903;28;20054;-83
2023/07/17 02:50:23;;;;;;;0.40;0.40;;;15.50;99.90;;;;;;4955228;28;20050;-82
2023/07/17 02:52:49;;;;;;;0.35;0.35;;;15.80;99.90;;;;;;4967057;28;20126;-83
2023/07/17 02:55:15;;;;;;;0.70;0.70;;;15.60;99.90;;;;;;4965940;28;20042;-84
2023/07/17 02:57:41;;;;;;;0.40;0.40;;;15.60;99.90;;;;;;4953451;28;20511;-83
2023/07/17 03:00:10;;;;;;;1.08;0.82;;;15.70;99.90;;;;;;4967362;28;20043;-83
2023/07/17 03:02:38;;;;;;;0.68;0.68;;;15.60;99.90;;;;;;4961287;28;20046;-83
2023/07/17 03:05:04;;;;;;;0.45;0.45;;;15.70;99.90;;;;;;4968665;28;20507;-84
2023/07/17 03:07:38;;;;;;;0.60;0.60;;;15.60;99.90;;;;;;4953620;28;20039;-83
2023/07/17 03:10:05;;;;;;;0.60;0.60;;;15.60;99.90;;;;;;4952833;28;20050;-84
2023/07/17 03:12:30;;;;;;;0.47;0.47;;;15.60;99.90;;;;;;4952760;28;20043;-84
2023/07/17 03:14:58;;;;;;;0.43;0.43;;;15.60;99.90;;;;;;4966277;28;20045;-83
2023/07/17 03:17:24;;;;;;;0.60;0.60;;;15.40;99.90;;;;;;4955148;28;20046;-83
2023/07/17 03:19:53;;;;;;;0.40;0.40;;;15.50;99.90;;;;;;4968965;28;20301;-82
2023/07/17 03:22:18;;;;;;;1.02;0.93;;;15.40;99.90;;;;;;4973746;28;20597;-83
2023/07/17 03:24:44;;;;;;;0.40;0.40;;;15.40;99.90;;;;;;4972379;28;20125;-82
2023/07/17 03:27:10;;;;;;;0.52;0.52;;;15.40;99.90;;;;;;4973706;28;20078;-83
2023/07/17 03:29:36;;;;;;;1.10;0.85;;;15.20;99.90;;;;;;4955493;28;20130;-82
2023/07/17 03:32:03;;;;;;;0.35;0.35;;;15.30;99.90;;;;;;4941012;28;20806;-83
2023/07/17 03:34:29;;;;;;;0.47;0.47;;;15.10;99.90;;;;;;4955485;28;20058;-83
2023/07/17 03:36:54;;;;;;;0.90;0.90;;;15.20;99.90;;;;;;4971801;28;20580;-82
2023/07/17 03:39:20;;;;;;;0.60;0.60;;;15.10;99.90;;;;;;4954989;28;20141;-83
2023/07/17 03:41:46;;;;;;;1.55;1.45;;;15.20;99.90;;;;;;4954618;28;20407;-83
2023/07/17 03:44:13;;;;;;;0.50;0.50;;;15.40;99.90;;;;;;4971358;28;20722;-84
2023/07/17 03:46:39;;;;;;;0.50;0.50;;;15.30;99.90;;;;;;4972974;28;20050;-82
2023/07/17 03:49:04;;;;;;;0.30;0.30;;;15.30;99.90;;;;;;4955578;28;20046;-83
2023/07/17 03:51:31;;;;;;;0.30;0.30;;;15.20;99.90;;;;;;4973351;28;20089;-83
2023/07/17 03:53:58;;;;;;;0.40;0.40;;;15.10;99.90;;;;;;4950486;28;20053;-83
2023/07/17 03:56:23;;;;;;;0.30;0.30;;;15.10;99.90;;;;;;4969733;28;20055;-83
2023/07/17 03:58:51;;;;;;;0.40;0.40;;;14.90;99.90;;;;;;4935562;29;20065;-83
2023/07/17 04:01:17;;;;;;;0.30;0.30;;;15.20;99.90;;;;;;4956628;28;20395;-83
2023/07/17 04:03:45;;;;;;;0.40;0.40;;;14.90;99.90;;;;;;4949797;28;20043;-83
2023/07/17 04:06:11;;;;;;;0.68;0.68;;;15.10;99.90;;;;;;4951520;28;20051;-83
2023/07/17 04:08:36;;;;;;;0.60;0.60;;;14.80;99.90;;;;;;4970825;28;20069;-83
2023/07/17 04:11:02;;;;;;;0.30;0.30;;;14.90;99.90;;;;;;4968571;28;20135;-83
2023/07/17 04:13:28;;;;;;;0.55;0.55;;;14.90;99.90;;;;;;4952042;28;20059;-83
2023/07/17 04:15:53;;;;;;;0.30;0.30;;;14.80;99.90;;;;;;4936285;28;20050;-83
2023/07/17 04:18:20;;;;;;;0.30;0.30;;;14.90;99.90;;;;;;4966381;28;20076;-83
2023/07/17 04:20:47;;;;;;;0.43;0.43;;;15.00;99.90;;;;;;4971518;28;20491;-83
2023/07/17 04:23:12;;;;;;;0.50;0.50;;;15.30;99.90;;;;;;4966614;28;20451;-82
2023/07/17 04:25:41;;;;;;;1.35;0.95;;;14.90;99.90;;;;;;4968862;28;20054;-83
2023/07/17 04:28:08;;;;;;;0.40;0.40;;;15.00;99.90;;;;;;4972494;28;20053;-83
2023/07/17 04:30:36;;;;;;;0.52;0.52;;;15.00;99.90;;;;;;4971319;28;20038;-82
2023/07/17 04:33:05;;;;;;;0.60;0.60;;;15.00;99.90;;;;;;4968462;28;20047;-83
2023/07/17 04:35:38;;;;;;;0.68;0.68;;;15.10;99.90;;;;;;4968087;28;20053;-84
2023/07/17 04:38:04;;;;;;;0.50;0.35;;;15.10;99.90;;;;;;4966693;28;20067;-84
2023/07/17 04:40:30;;;;;;;0.45;0.45;;;15.30;99.90;;;;;;4968686;28;20413;-83
2023/07/17 04:42:58;;;;;;;0.40;0.40;;;15.30;99.90;;;;;;4955131;28;20046;-83
2023/07/17 04:45:24;;;;;;;1.38;0.47;;;15.30;99.90;;;;;;4938788;28;20050;-83
2023/07/17 04:47:49;;;;;;;0.70;0.70;;;15.50;99.90;;;;;;4954216;28;20043;-83
2023/07/17 04:50:15;;;;;;;0.50;0.50;;;15.40;99.90;;;;;;4967511;28;20054;-83
2023/07/17 04:52:41;;;;;;;0.35;0.35;;;15.50;99.90;;;;;;4973694;28;20070;-84
2023/07/17 04:55:07;;;;;;;0.60;0.60;;;15.60;99.90;;;;;;4970923;28;20057;-83
2023/07/17 04:57:33;;;;;;;0.40;0.40;;;15.30;99.90;;;;;;4955141;28;20384;-84
2023/07/17 04:59:58;;;;;;;0.30;0.30;;;15.60;99.90;;;;;;4971458;28;20061;-82
2023/07/17 05:02:24;;;;;;;0.30;0.30;;;15.60;99.90;;;;;;4937078;28;20057;-81
2023/07/17 05:04:49;;;;;;;1.05;0.88;;;15.40;99.90;;;;;;4965950;28;20043;-80
2023/07/17 05:07:16;;;;;;;0.40;0.40;;;15.60;99.90;;;;;;4968694;28;20157;-81
2023/07/17 05:09:43;;;;;;;0.52;0.52;;;15.40;99.90;;;;;;4964312;28;20504;-82
2023/07/17 05:12:09;;;;;;;0.65;0.65;;;15.60;99.90;;;;;;4969143;28;20225;-81
2023/07/17 05:14:34;;;;;;;1.48;1.15;;;15.40;99.90;;;;;;4962927;28;20882;-83
2023/07/17 05:17:00;;;;;;;0.82;0.82;;;15.70;99.90;;;;;;4952697;28;20050;-82
2023/07/17 05:19:26;;;;;;;0.77;0.77;;;15.60;99.90;;;;;;4952678;28;20133;-81
2023/07/17 05:21:51;;;;;;;1.63;1.30;;;15.70;99.90;;;;;;4950974;28;20047;-83
2023/07/17 05:24:17;;;;;;;0.38;0.38;;;15.80;99.90;;;;;;4952149;28;20042;-82
2023/07/17 05:26:43;;;;;;;1.15;0.80;;;15.80;99.90;;;;;;4955027;28;20153;-81
2023/07/17 05:29:09;;;;;;;0.70;0.70;;;15.70;99.90;;;;;;4952524;28;20130;-84
2023/07/17 05:31:34;;;;;;;0.63;0.63;;;16.00;99.90;;;;;;4948833;28;20381;-83
2023/07/17 05:34:00;;;;;;;0.68;0.68;;;15.70;99.90;;;;;;4937403;28;20414;-81
2023/07/17 05:36:25;;;;;;;0.80;0.80;;;15.90;99.90;;;;;;4952994;28;20069;-83
2023/07/17 05:38:51;;;;;;;0.60;0.60;;;16.10;99.90;;;;;;4950920;28;20041;-82
2023/07/17 05:41:17;;;;;;;0.47;0.47;;;15.90;99.90;;;;;;4946845;29;20060;-83
2023/07/17 05:43:43;;;;;;;0.73;0.73;;;15.80;99.90;;;;;;4936357;28;20051;-83
2023/07/17 05:46:08;;;;;;;0.52;0.52;;;16.00;99.90;;;;;;4953567;28;20665;-83
2023/07/17 05:48:34;;;;;;;0.80;0.80;;;16.20;99.90;;;;;;4953091;28;20073;-84
2023/07/17 05:51:00;;;;;;;1.15;1.05;;;16.20;99.90;;;;;;4953903;28;20030;-83
2023/07/17 05:53:25;;;;;;;0.50;0.50;;;16.20;99.90;;;;;;4969396;28;20673;-83
2023/07/17 05:55:52;;;;;;;1.10;1.10;;;16.50;99.90;;;;;;4953449;28;20070;-80
2023/07/17 05:58:17;;;;;;;5.43;1.55;;;16.40;99.90;;;;;;4970573;28;20407;-85
2023/07/17 06:00:45;;;;;;;0.60;0.60;;;16.50;99.90;;;;;;4938143;28;20055;-81
2023/07/17 06:03:10;;;;;;;0.63;0.63;;;16.50;99.90;;;;;;4951953;28;20121;-82
2023/07/17 06:05:38;;;;;;;0.88;0.88;;;16.60;99.90;;;;;;4941081;28;20385;-81
2023/07/17 06:08:04;;;;;;;0.85;0.85;;;17.00;99.90;;;;;;4965274;28;20077;-82
2023/07/17 06:10:30;;;;;;;0.77;0.77;;;16.90;99.90;;;;;;4964975;28;20054;-82
2023/07/17 06:12:56;;;;;;;0.40;0.40;;;17.10;99.90;;;;;;4943978;28;20077;-82
2023/07/17 06:15:22;;;;;;;0.60;0.60;;;17.00;99.90;;;;;;4951096;28;20514;-82
2023/07/17 06:17:48;;;;;;;1.38;1.08;;;16.80;99.90;;;;;;4952840;28;20065;-81
2023/07/17 06:20:14;;;;;;;0.77;0.77;;;17.00;99.90;;;;;;4967686;28;20054;-83
2023/07/17 06:22:40;;;;;;;1.02;0.88;;;16.90;99.90;;;;;;4949209;28;20053;-81
2023/07/17 06:25:06;;;;;;;0.40;0.40;;;17.00;99.90;;;;;;4951975;28;20062;-81
2023/07/17 06:27:32;;;;;;;0.40;0.40;;;17.20;99.90;;;;;;4950724;28;20054;-83
2023/07/17 06:29:59;;;;;;;0.93;0.93;;;17.30;99.90;;;;;;4964658;28;20046;-82
2023/07/17 06:32:25;;;;;;;0.60;0.60;;;17.40;99.90;;;;;;4945055;28;20049;-82
2023/07/17 06:34:50;;;;;;;0.52;0.52;;;17.40;99.90;;;;;;4949135;28;20043;-82
2023/07/17 06:37:16;;;;;;;2.30;1.40;;;17.50;99.90;;;;;;4969297;28;20130;-82
2023/07/17 06:39:41;;;;;;;7.13;1.13;;;17.40;99.90;;;;;;4969851;28;20393;-81
2023/07/17 06:42:08;;;;;;;0.50;0.50;;;17.70;99.90;;;;;;4943259;28;20043;-85
2023/07/17 06:44:40;;;;;;;0.40;0.40;;;17.60;99.90;;;;;;4945137;28;20119;-83
2023/07/17 06:47:05;;;;;;;12.35;1.50;;;17.80;99.90;;;;;;4965914;28;20129;-84
2023/07/17 06:49:31;;;;;;;0.75;0.75;;;18.00;99.90;;;;;;4952294;28;20121;-81
2023/07/17 06:51:58;;;;;;;0.30;0.30;;;18.20;99.90;;;;;;4965752;28;20066;-82
2023/07/17 06:54:24;;;;;;;1.10;1.10;;;18.50;99.90;;;;;;4969837;28;20047;-83
2023/07/17 06:56:50;;;;;;;0.50;0.50;;;18.50;99.90;;;;;;4968927;28;20050;-84
2023/07/17 06:59:17;;;;;;;0.47;0.47;;;18.60;99.90;;;;;;4943787;29;20047;-84
2023/07/17 07:01:43;;;;;;;0.60;0.60;;;18.90;99.90;;;;;;4948950;28;20121;-83
2023/07/17 07:04:09;;;;;;;1.35;1.27;;;18.70;99.90;;;;;;4965332;28;20170;-82
2023/07/17 07:06:34;;;;;;;0.75;0.75;;;18.80;99.90;;;;;;4948017;28;20491;-81
2023/07/17 07:09:00;;;;;;;3.60;1.33;;;19.00;99.90;;;;;;4968091;28;20043;-84
2023/07/17 07:11:25;;;;;;;1.48;1.42;;;19.20;99.90;;;;;;4961368;28;20058;-82
2023/07/17 07:13:53;;;;;;;0.60;0.60;;;19.30;99.90;;;;;;4964438;28;20983;-81
2023/07/17 07:16:19;;;;;;;1.17;1.13;;;19.50;99.90;;;;;;4963313;28;20053;-82
2023/07/17 07:18:44;;;;;;;0.85;0.85;;;19.80;99.90;;;;;;4963425;28;20441;-82
2023/07/17 07:21:10;;;;;;;1.60;1.35;;;20.00;99.90;;;;;;4951843;28;20055;-84
2023/07/17 07:23:36;;;;;;;1.00;1.00;;;20.20;99.90;;;;;;4945308;28;20494;-85
2023/07/17 07:26:01;;;;;;;1.10;0.80;;;20.30;99.90;;;;;;4946755;28;20113;-83
2023/07/17 07:28:28;;;;;;;0.95;0.95;;;20.60;99.90;;;;;;4951568;28;20174;-84
2023/07/17 07:30:56;;;;;;;0.90;0.90;;;20.50;99.90;;;;;;4951740;28;20142;-82
2023/07/17 07:33:21;;;;;;;;;;;20.60;99.90;;;;;;4959710;28;20141;-84
2023/07/17 07:35:47;;;;;;;1.38;1.27;;;20.60;99.90;;;;;;4965753;28;20710;-85
2023/07/17 07:38:13;;;;;;;0.98;0.98;;;20.50;99.90;;;;;;4957491;28;20378;-83
2023/07/17 07:40:39;;;;;;;1.88;1.70;;;20.30;99.90;;;;;;4946301;28;20058;-82
2023/07/17 07:43:04;;;;;;;0.40;0.40;;;20.30;99.90;;;;;;4947658;28;20047;-83
2023/07/17 07:45:31;;;;;;;0.77;0.75;;;20.30;99.90;;;;;;4959420;28;20108;-82
2023/07/17 07:47:58;;;;;;;1.35;1.25;;;20.30;99.90;;;;;;4946088;28;20043;-82
2023/07/17 07:50:25;;;;;;;1.20;1.10;;;20.40;99.90;;;;;;4944826;28;20043;-83
2023/07/17 07:52:51;;;;;;;0.25;0.25;;;20.40;99.90;;;;;;4948609;28;20043;-83
2023/07/17 07:55:16;;;;;;;1.25;1.15;;;20.30;99.90;;;;;;4946698;28;20455;-83
2023/07/17 07:57:43;;;;;;;0.93;0.93;;;20.60;99.90;;;;;;4959423;28;20038;-84
2023/07/17 08:00:09;;;;;;;0.98;0.98;;;20.70;99.90;;;;;;4952449;28;20715;-82
2023/07/17 08:02:36;;;;;;;1.00;1.00;;;20.90;99.90;;;;;;4965242;28;20051;-84
2023/07/17 08:05:03;;;;;;;1.35;1.27;;;21.20;99.90;;;;;;4946434;28;20051;-82
2023/07/17 08:07:29;;;;;;;0.60;0.60;;;21.30;99.90;;;;;;4950331;28;20578;-83
2023/07/17 08:09:55;;;;;;;1.08;1.02;;;21.40;99.90;;;;;;4963429;28;20125;-82
2023/07/17 08:12:21;;;;;;;0.40;0.40;;;21.50;99.90;;;;;;4959861;28;20146;-83
2023/07/17 08:14:56;;;;;;;0.70;0.70;;;21.30;99.90;;;;;;4950157;28;20071;-83
2023/07/17 08:17:29;;;;;;;1.65;1.55;;;21.50;99.90;;;;;;4950102;28;20059;-82
2023/07/17 08:19:58;;;;;;;1.13;1.02;;;21.30;99.90;;;;;;4968039;28;20055;-81
2023/07/17 08:22:25;;;;;;;1.63;1.58;;;21.20;99.90;;;;;;4951495;28;20492;-78
2023/07/17 08:24:51;;;;;;;0.47;0.47;;;21.20;99.90;;;;;;4966862;28;20047;-83
2023/07/17 08:27:17;;;;;;;1.30;1.20;;;21.10;99.90;;;;;;4944477;28;20447;-87
2023/07/17 08:29:43;;;;;;;1.13;1.05;;;21.00;99.90;;;;;;4945009;28;20085;-83
2023/07/17 08:32:10;;;;;;;2.00;1.23;;;21.00;99.90;;;;;;4961419;28;20074;-85
2023/07/17 08:34:36;;;;;;;0.63;0.63;;;20.90;99.90;;;;;;4968180;28;20035;-87
2023/07/17 08:37:02;;;;;;;1.10;0.75;;;21.00;99.90;;;;;;4930918;29;20520;-80
2023/07/17 08:39:28;;;;;;;1.05;1.05;;;21.20;99.90;;;;;;4959096;28;20045;-80
2023/07/17 08:41:53;;;;;;;1.02;0.95;;;21.00;99.90;;;;;;4958731;28;20531;-80
2023/07/17 08:44:19;;;;;;;1.42;1.38;;;20.90;99.90;;;;;;4964882;28;20046;-80
2023/07/17 08:46:47;;;;;;;0.77;0.77;;;20.80;99.90;;;;;;4962037;28;20043;-80
2023/07/17 08:49:16;;;;;;;0.60;0.60;;;20.60;99.90;;;;;;4952747;28;20034;-80
2023/07/17 08:51:42;;;;;;;0.93;0.93;;;20.50;99.90;;;;;;4950920;28;20054;-80
2023/07/17 08:54:10;;;;;;;0.50;0.50;;;20.40;99.90;;;;;;4958503;28;20347;-79
2023/07/17 08:56:35;;;;;;;0.88;0.88;;;20.30;99.90;;;;;;4954425;28;20549;-80
2023/07/17 08:59:02;;;;;;;0.70;0.70;;;20.40;99.90;;;;;;4968859;28;20047;-79
2023/07/17 09:01:28;;;;;;;0.63;0.63;;;20.30;99.90;;;;;;4951132;28;20094;-80
2023/07/17 09:03:54;;;;;;;0.90;0.90;;;20.30;99.90;;;;;;4952373;28;20452;-80
2023/07/17 09:06:26;;;;;;;0.95;0.93;;;20.40;99.90;;;;;;4967140;28;20097;-80
2023/07/17 09:08:52;;;;;;;0.70;0.70;;;20.10;99.90;;;;;;4949265;28;20051;-78
2023/07/17 09:11:19;;;;;;;0.50;0.50;;;19.80;99.90;;;;;;4971487;28;20047;-82
2023/07/17 09:13:45;;;;;;;1.65;0.90;;;19.60;99.90;;;;;;4971280;28;20038;-79
2023/07/17 09:16:31;;;;;;;0.40;0.40;;;19.40;99.90;;;;;;4953819;28;20039;-79
2023/07/17 09:18:57;;;;;;;0.50;0.50;;;19.00;99.90;;;;;;4953873;28;20057;-79
2023/07/17 09:21:24;;;;;;;0.80;0.80;;;18.80;99.90;;;;;;4971190;28;20035;-80
2023/07/17 09:23:55;;;;;;;1.05;1.05;;;18.40;99.90;;;;;;4951548;28;20094;-80
2023/07/17 09:26:22;;;;;;;1.33;0.90;;;18.20;99.90;;;;;;4945384;28;20047;-80
2023/07/17 09:28:56;;;;;;;0.35;0.35;;;18.30;99.90;;;;;;4953274;28;20129;-80
2023/07/17 09:31:32;;;;;;;1.35;0.65;;;18.10;99.90;;;;;;4937934;28;20058;-80
2023/07/17 09:34:00;;;;;;;0.85;0.85;;;18.30;99.90;;;;;;4946039;28;20089;-79
2023/07/17 09:36:27;;;;;;;0.63;0.63;;;18.60;99.90;;;;;;4971386;28;20043;-79
2023/07/17 09:38:57;;;;;;;0.75;0.75;;;18.80;99.90;;;;;;4969494;28;20038;-80
2023/07/17 09:41:27;;;;;;;0.55;0.40;;;19.20;99.90;;;;;;4967886;28;20042;-74
2023/07/17 09:43:53;;;;;;;0.30;0.30;;;19.90;99.90;;;;;;4970932;28;20065;-78
2023/07/17 09:46:20;;;;;;;0.45;0.45;;;20.10;99.90;;;;;;4949074;28;20097;-79
2023/07/17 09:48:46;;;;;;;0.57;0.57;;;20.10;99.90;;;;;;4953854;28;20042;-78
2023/07/17 09:51:13;;;;;;;0.95;0.55;;;20.60;99.90;;;;;;4936880;28;20487;-77
2023/07/17 09:53:40;;;;;;;0.40;0.40;;;20.70;99.90;;;;;;4966967;28;20131;-77
2023/07/17 09:56:11;;;;;;;0.80;0.80;;;21.40;99.90;;;;;;4974393;28;20137;-77
2023/07/17 09:58:43;;;;;;;0.55;0.55;;;21.40;99.90;;;;;;4961973;28;20097;-78
2023/07/17 10:01:10;;;;;;;0.82;0.73;;;21.80;99.90;;;;;;4966807;28;20792;-78
2023/07/17 10:03:36;;;;;;;0.82;0.82;;;22.30;99.90;;;;;;4939740;28;20078;-78
2023/07/17 10:06:02;;;;;;;0.30;0.30;;;22.80;99.90;;;;;;4971023;28;20054;-79
2023/07/17 10:08:29;;;;;;;0.52;0.52;;;22.90;99.90;;;;;;4967113;28;20057;-79
2023/07/17 10:10:55;;;;;;;0.63;0.63;;;23.00;99.90;;;;;;4967030;28;20511;-78
2023/07/17 10:13:21;;;;;;;0.35;0.35;;;22.80;99.90;;;;;;4963890;28;20047;-78
2023/07/17 10:15:47;;;;;;;1.75;0.82;;;23.00;99.90;;;;;;4950259;28;20399;-78
2023/07/17 10:18:13;;;;;;;1.95;1.85;;;22.80;99.90;;;;;;4965512;28;20043;-78
2023/07/17 10:20:49;;;;;;;0.63;0.63;;;22.80;99.90;;;;;;4952827;28;20097;-77
2023/07/17 10:23:26;;;;;;;0.50;0.50;;;22.80;99.90;;;;;;4964011;28;20069;-77
2023/07/17 10:26:05;;;;;;;0.50;0.50;;;23.10;99.90;;;;;;4969347;28;20053;-77
2023/07/17 10:28:32;;;;;;;1.17;1.17;;;23.10;99.90;;;;;;4954049;28;20058;-76
2023/07/17 10:31:15;;;;;;;0.40;0.40;;;23.10;99.90;;;;;;4950077;28;20412;-76
2023/07/17 10:33:47;;;;;;;0.55;0.55;;;23.10;99.90;;;;;;4965252;28;20035;-77
2023/07/17 10:36:13;;;;;;;0.52;0.52;;;23.30;99.90;;;;;;4968942;28;20855;-77
2023/07/17 10:38:39;;;;;;;2.38;0.50;;;23.30;99.90;;;;;;4946045;28;20126;-78
2023/07/17 10:41:13;;;;;;;0.60;0.60;;;23.30;99.90;;;;;;4951951;28;20141;-76
2023/07/17 10:43:56;;;;;;;0.55;0.55;;;23.40;99.90;;;;;;4968787;28;20055;-77
2023/07/17 10:46:29;;;;;;;0.70;0.70;;;23.50;99.90;;;;;;4951436;28;20039;-80
2023/07/17 10:49:06;;;;;;;0.43;0.43;;;23.60;99.90;;;;;;4964661;28;20050;-76
2023/07/17 10:51:32;;;;;;;1.05;1.05;;;23.60;99.90;;;;;;4964956;28;20054;-76
2023/07/17 10:53:58;;;;;;;0.40;0.40;;;23.70;99.90;;;;;;4966452;28;20055;-76
2023/07/17 10:56:24;;;;;;;0.30;0.30;;;23.80;99.90;;;;;;4966489;28;20042;-76
2023/07/17 10:58:51;;;;;;;0.85;0.85;;;23.90;99.90;;;;;;4968095;28;20114;-76
2023/07/17 11:01:16;;;;;;;0.70;0.70;;;24.00;99.90;;;;;;4951274;28;20503;-77
2023/07/17 11:03:47;;;;;;;0.47;0.47;;;24.20;99.90;;;;;;4947238;28;20066;-76
2023/07/17 11:06:17;;;;;;;0.40;0.40;;;24.20;99.90;;;;;;4961683;28;20054;-77
2023/07/17 11:08:54;;;;;;;0.35;0.35;;;23.90;99.90;;;;;;4948731;28;20082;-76
2023/07/17 11:11:20;;;;;;;0.40;0.40;;;23.80;99.90;;;;;;4959805;28;20044;-76
2023/07/17 11:13:49;;;;;;;0.68;0.60;;;23.60;99.90;;;;;;4927226;28;20042;-76
2023/07/17 11:16:16;;;;;;;0.30;0.30;;;23.60;99.90;;;;;;4965321;28;20138;-76
2023/07/17 11:18:50;;;;;;;1.00;0.95;;;23.50;99.90;;;;;;4967946;28;20041;-76
2023/07/17 11:21:17;;;;;;;0.95;0.80;;;23.60;99.90;;;;;;4959396;28;20039;-76
2023/07/17 11:24:05;;;;;;;0.50;0.50;;;23.80;99.90;;;;;;4950258;28;20118;-76
2023/07/17 11:26:32;;;;;;;1.67;1.13;;;23.80;99.90;;;;;;4946263;28;20054;-76
2023/07/17 11:28:59;;;;;;;1.90;1.77;;;23.80;99.90;;;;;;4941456;28;20526;-77
2023/07/17 11:31:30;;;;;;;0.38;0.38;;;23.80;99.90;;;;;;4945183;28;20822;-77
2023/07/17 11:33:59;;;;;;;0.63;0.63;;;23.80;99.90;;;;;;4935664;28;20053;-78
2023/07/17 11:36:51;;;;;;;0.52;0.52;;;24.10;99.90;;;;;;4952007;28;20054;-77
2023/07/17 11:39:19;;;;;;;1.50;0.93;;;24.20;99.90;;;;;;4952968;28;20050;-78
2023/07/17 11:41:51;;;;;;;6.15;2.10;;;24.20;99.90;;;;;;4954501;28;20050;-78
2023/07/17 11:44:29;;;;;;;0.70;0.70;;;24.30;99.90;;;;;;4954801;28;20638;-78
2023/07/17 11:47:05;;;;;;;0.93;0.85;;;24.40;99.90;;;;;;4938592;28;20495;-78
2023/07/17 11:49:33;;;;;;;0.85;0.85;;;24.30;99.90;;;;;;4950895;28;20050;-79
2023/07/17 11:51:59;;;;;;;0.70;0.70;;;24.60;99.90;;;;;;4950591;28;20082;-76
2023/07/17 11:54:29;;;;;;;2.78;0.95;;;24.70;99.90;;;;;;4952522;28;20953;-74
2023/07/17 11:56:59;;;;;;;0.30;0.30;;;24.60;99.90;;;;;;4937365;28;20050;-74
2023/07/17 11:59:25;;;;;;;0.50;0.50;;;24.60;99.90;;;;;;4938217;28;20057;-74
2023/07/17 12:01:51;;;;;;;0.63;0.63;;;24.50;99.90;;;;;;4945853;28;20043;-74
2023/07/17 12:04:35;;;;;;;0.95;0.90;;;24.30;99.90;;;;;;4951880;28;20493;-73
2023/07/17 12:07:02;;;;;;;0.98;0.98;;;24.30;99.90;;;;;;4953189;28;20074;-74
2023/07/17 12:09:27;;;;;;;1.60;0.70;;;24.20;99.90;;;;;;4953189;28;20073;-74
2023/07/17 12:11:53;;;;;;;1.50;0.93;;;24.40;99.90;;;;;;4970864;28;20515;-74
2023/07/17 12:14:19;;;;;;;0.52;0.45;;;24.50;99.90;;;;;;4950965;28;20062;-74
2023/07/17 12:16:45;;;;;;;0.60;0.60;;;24.50;99.90;;;;;;4965287;28;20197;-74
2023/07/17 12:19:11;;;;;;;0.50;0.50;;;24.70;99.90;;;;;;4964257;28;20066;-74
2023/07/17 12:21:37;;;;;;;0.85;0.75;;;24.80;99.90;;;;;;4944002;28;20038;-73
2023/07/17 12:24:04;;;;;;;0.28;0.28;;;24.50;99.90;;;;;;4944842;28;20508;-74
2023/07/17 12:26:30;;;;;;;2.23;0.63;;;24.40;99.90;;;;;;4960888;28;20050;-74
2023/07/17 12:28:55;;;;;;;1.08;0.93;;;24.20;99.90;;;;;;4956269;28;20035;-72
2023/07/17 12:31:21;;;;;;;0.57;0.57;;;24.00;99.90;;;;;;4938131;28;20051;-74
2023/07/17 12:33:47;;;;;;;0.40;0.40;;;24.20;99.90;;;;;;4950820;28;20051;-73
2023/07/17 12:36:13;;;;;;;1.85;0.57;;;24.20;99.90;;;;;;4951002;28;20085;-73
2023/07/17 12:38:39;;;;;;;0.40;0.40;;;24.10;99.90;;;;;;4961466;28;20117;-74
2023/07/17 12:41:05;;;;;;;0.50;0.40;;;23.90;99.90;;;;;;4970802;28;20122;-73
2023/07/17 12:43:30;;;;;;;0.55;0.55;;;23.90;99.90;;;;;;4945249;28;20105;-73
2023/07/17 12:45:59;;;;;;;0.88;0.88;;;23.60;99.90;;;;;;4933965;28;20097;-72
2023/07/17 12:48:26;;;;;;;0.50;0.50;;;23.30;99.90;;;;;;4967003;28;20082;-75
2023/07/17 12:50:51;;;;;;;0.80;0.77;;;23.10;99.90;;;;;;4966870;28;20138;-74